sensor_id;sensor_type;location;lat;lon;timestamp;pressure;altitude;pressure_sealevel;temperature;humidity
19114;BME280;9689;51.052;13.772;2024-02-15T00:02:52;100581.03;;;7.90;100.00
19114;BME280;9689;51.052;13.772;2024-02-15T00:08:10;100579.38;;;7.83;100.00
19114;BME280;9689;51.052;13.772;2024-02-15T00:13:11;100584.59;;;7.75;100.00
19114;BME280;9689;51.052;13.772;2024-02-15T00:18:14;100581.97;;;7.72;100.00
19114;BME280;9689;51.052;13.772;2024-02-15T00:23:15;100581.13;;;7.75;100.00
19114;BME280;9689;51.052;13.772;2024-02-15T00:28:16;100576.75;;;7.81;100.00
19114;BME280;9689;51.052;13.772;2024-02-15T00:33:18;100581.91;;;7.89;100.00
19114;BME280;9689;51.052;13.772;2024-02-15T00:38:20;100581.91;;;7.89;100.00
19114;BME280;9689;51.052;13.772;2024-02-15T00:43:21;100573.28;;;7.91;100.00
19114;BME280;9689;51.052;13.772;2024-02-15T00:48:23;100574.97;;;7.96;100.00
19114;BME280;9689;51.052;13.772;2024-02-15T00:53:28;100570.63;;;7.99;100.00
19114;BME280;9689;51.052;13.772;2024-02-15T00:58:30;100568.91;;;8.00;100.00
19114;BME280;9689;51.052;13.772;2024-02-15T01:03:32;100574.03;;;8.07;100.00
19114;BME280;9689;51.052;13.772;2024-02-15T01:08:34;100571.41;;;8.13;100.00
19114;BME280;9689;51.052;13.772;2024-02-15T01:13:36;100569.72;;;8.11;100.00
19114;BME280;9689;51.052;13.772;2024-02-15T01:18:38;100569.72;;;8.09;100.00
19114;BME280;9689;51.052;13.772;2024-02-15T01:23:39;100564.47;;;8.15;100.00
19114;BME280;9689;51.052;13.772;2024-02-15T01:28:41;100563.63;;;8.18;100.00
19114;BME280;9689;51.052;13.772;2024-02-15T01:33:44;100563.56;;;8.22;100.00
19114;BME280;9689;51.052;13.772;2024-02-15T01:38:46;100554.09;;;8.17;100.00
19114;BME280;9689;51.052;13.772;2024-02-15T01:43:47;100560.97;;;8.22;100.00
19114;BME280;9689;51.052;13.772;2024-02-15T01:48:51;100548.88;;;8.20;100.00
19114;BME280;9689;51.052;13.772;2024-02-15T01:53:52;100561.84;;;8.21;100.00
19114;BME280;9689;51.052;13.772;2024-02-15T01:58:54;100552.31;;;8.27;100.00
19114;BME280;9689;51.052;13.772;2024-02-15T02:03:56;100548.84;;;8.25;100.00
19114;BME280;9689;51.052;13.772;2024-02-15T02:08:57;100544.50;;;8.28;100.00
19114;BME280;9689;51.052;13.772;2024-02-15T02:13:58;100540.13;;;8.33;100.00
19114;BME280;9689;51.052;13.772;2024-02-15T02:19:01;100545.31;;;8.33;100.00
19114;BME280;9689;51.052;13.772;2024-02-15T02:24:10;100548.78;;;8.34;100.00
19114;BME280;9689;51.052;13.772;2024-02-15T02:29:16;100541.00;;;8.32;100.00
19114;BME280;9689;51.052;13.772;2024-02-15T02:34:17;100545.31;;;8.33;100.00
19114;BME280;9689;51.052;13.772;2024-02-15T02:39:19;100541.88;;;8.37;100.00
19114;BME280;9689;51.052;13.772;2024-02-15T02:44:24;100535.78;;;8.43;100.00
19114;BME280;9689;51.052;13.772;2024-02-15T02:49:25;100542.69;;;8.44;100.00
19114;BME280;9689;51.052;13.772;2024-02-15T02:54:26;100543.50;;;8.52;100.00
19114;BME280;9689;51.052;13.772;2024-02-15T02:59:30;100537.44;;;8.50;100.00
19114;BME280;9689;51.052;13.772;2024-02-15T03:04:32;100540.06;;;8.52;100.00
19114;BME280;9689;51.052;13.772;2024-02-15T03:09:33;100536.53;;;8.57;100.00
19114;BME280;9689;51.052;13.772;2024-02-15T03:14:36;100537.38;;;8.58;100.00
19114;BME280;9689;51.052;13.772;2024-02-15T03:19:37;100536.53;;;8.57;100.00
19114;BME280;9689;51.052;13.772;2024-02-15T03:24:38;100522.72;;;8.54;100.00
19114;BME280;9689;51.052;13.772;2024-02-15T03:29:40;100528.69;;;8.63;100.00
19114;BME280;9689;51.052;13.772;2024-02-15T03:34:42;100524.38;;;8.62;100.00
19114;BME280;9689;51.052;13.772;2024-02-15T03:39:43;100524.38;;;8.62;100.00
19114;BME280;9689;51.052;13.772;2024-02-15T03:44:45;100528.69;;;8.62;100.00
19114;BME280;9689;51.052;13.772;2024-02-15T03:49:47;100530.38;;;8.67;100.00
19114;BME280;9689;51.052;13.772;2024-02-15T03:54:48;100539.00;;;8.71;100.00
19114;BME280;9689;51.052;13.772;2024-02-15T03:59:50;100539.06;;;8.65;100.00
19114;BME280;9689;51.052;13.772;2024-02-15T04:04:52;100537.34;;;8.62;99.88
19114;BME280;9689;51.052;13.772;2024-02-15T04:09:54;100540.78;;;8.69;100.00
19114;BME280;9689;51.052;13.772;2024-02-15T04:14:56;100544.19;;;8.72;99.81
19114;BME280;9689;51.052;13.772;2024-02-15T04:20:05;100537.28;;;8.70;99.52
19114;BME280;9689;51.052;13.772;2024-02-15T04:25:07;100544.19;;;8.72;99.88
19114;BME280;9689;51.052;13.772;2024-02-15T04:30:11;100540.69;;;8.75;99.69
19114;BME280;9689;51.052;13.772;2024-02-15T04:35:12;100539.84;;;8.73;99.63
19114;BME280;9689;51.052;13.772;2024-02-15T04:40:14;100545.03;;;8.74;99.48
19114;BME280;9689;51.052;13.772;2024-02-15T04:45:19;100545.94;;;8.72;99.48
19114;BME280;9689;51.052;13.772;2024-02-15T04:50:21;100545.03;;;8.77;100.00
19114;BME280;9689;51.052;13.772;2024-02-15T04:55:22;100551.97;;;8.74;99.92
19114;BME280;9689;51.052;13.772;2024-02-15T05:00:24;100548.50;;;8.78;99.73
19114;BME280;9689;51.052;13.772;2024-02-15T05:05:26;100553.69;;;8.78;99.35
19114;BME280;9689;51.052;13.772;2024-02-15T05:10:28;100554.47;;;8.83;98.72
19114;BME280;9689;51.052;13.772;2024-02-15T05:15:31;100552.72;;;8.85;99.31
19114;BME280;9689;51.052;13.772;2024-02-15T05:20:32;100560.53;;;8.84;98.87
19114;BME280;9689;51.052;13.772;2024-02-15T05:25:34;100554.94;;;9.25;100.00
19114;BME280;9689;51.052;13.772;2024-02-15T05:30:36;100565.66;;;8.96;100.00
19114;BME280;9689;51.052;13.772;2024-02-15T05:35:39;100572.59;;;8.92;99.58
19114;BME280;9689;51.052;13.772;2024-02-15T05:40:41;100560.50;;;8.90;99.26
19114;BME280;9689;51.052;13.772;2024-02-15T05:45:44;100565.72;;;8.87;99.46
19114;BME280;9689;51.052;13.772;2024-02-15T05:50:45;100571.78;;;8.89;98.69
19114;BME280;9689;51.052;13.772;2024-02-15T05:55:46;100565.72;;;8.85;99.27
19114;BME280;9689;51.052;13.772;2024-02-15T06:00:50;100571.00;;;8.74;100.00
19114;BME280;9689;51.052;13.772;2024-02-15T06:05:52;100572.75;;;8.74;100.00
19114;BME280;9689;51.052;13.772;2024-02-15T06:10:58;100579.72;;;8.72;100.00
19114;BME280;9689;51.052;13.772;2024-02-15T06:16:00;100595.31;;;8.70;100.00
19114;BME280;9689;51.052;13.772;2024-02-15T06:21:01;100597.03;;;8.68;100.00
19114;BME280;9689;51.052;13.772;2024-02-15T06:26:02;100596.22;;;8.63;100.00
19114;BME280;9689;51.052;13.772;2024-02-15T06:31:04;100597.97;;;8.61;100.00
19114;BME280;9689;51.052;13.772;2024-02-15T06:36:23;100612.72;;;8.61;100.00
19114;BME280;9689;51.052;13.772;2024-02-15T06:41:41;100612.69;;;8.62;100.00
19114;BME280;9689;51.052;13.772;2024-02-15T06:46:43;100615.28;;;8.59;100.00
19114;BME280;9689;51.052;13.772;2024-02-15T06:51:47;100615.28;;;8.62;100.00
19114;BME280;9689;51.052;13.772;2024-02-15T06:56:49;100616.13;;;8.69;100.00
19114;BME280;9689;51.052;13.772;2024-02-15T07:01:53;100604.00;;;8.66;100.00
19114;BME280;9689;51.052;13.772;2024-02-15T07:06:55;100615.22;;;8.71;100.00
19114;BME280;9689;51.052;13.772;2024-02-15T07:11:56;100610.88;;;8.73;100.00
19114;BME280;9689;51.052;13.772;2024-02-15T07:16:59;100609.13;;;8.74;100.00
19114;BME280;9689;51.052;13.772;2024-02-15T07:22:12;100605.66;;;8.75;100.00
19114;BME280;9689;51.052;13.772;2024-02-15T07:27:23;100595.25;;;8.76;100.00
19114;BME280;9689;51.052;13.772;2024-02-15T07:32:27;100604.63;;;8.94;100.00
19114;BME280;9689;51.052;13.772;2024-02-15T07:37:28;100601.94;;;9.06;100.00
19114;BME280;9689;51.052;13.772;2024-02-15T07:42:29;100607.03;;;9.17;100.00
19114;BME280;9689;51.052;13.772;2024-02-15T07:47:33;100607.72;;;9.34;100.00
19114;BME280;9689;51.052;13.772;2024-02-15T07:52:34;100609.41;;;9.40;100.00
19114;BME280;9689;51.052;13.772;2024-02-15T07:57:44;100612.78;;;9.50;100.00
19114;BME280;9689;51.052;13.772;2024-02-15T08:02:52;100610.97;;;9.56;100.00
19114;BME280;9689;51.052;13.772;2024-02-15T08:07:56;100610.97;;;9.58;100.00
19114;BME280;9689;51.052;13.772;2024-02-15T08:12:57;100603.81;;;9.75;100.00
19114;BME280;9689;51.052;13.772;2024-02-15T08:18:00;100597.22;;;10.14;100.00
19114;BME280;9689;51.052;13.772;2024-02-15T08:23:05;100590.22;;;10.21;100.00
19114;BME280;9689;51.052;13.772;2024-02-15T08:28:08;100575.41;;;10.25;100.00
19114;BME280;9689;51.052;13.772;2024-02-15T08:33:10;100565.03;;;10.23;99.94
19114;BME280;9689;51.052;13.772;2024-02-15T08:38:11;100575.28;;;10.35;100.00
19114;BME280;9689;51.052;13.772;2024-02-15T08:43:12;100576.03;;;10.42;98.98
19114;BME280;9689;51.052;13.772;2024-02-15T08:48:14;100580.25;;;10.51;99.16
19114;BME280;9689;51.052;13.772;2024-02-15T08:53:15;100573.91;;;10.67;98.02
19114;BME280;9689;51.052;13.772;2024-02-15T08:58:18;100582.78;;;11.08;98.01
19114;BME280;9689;51.052;13.772;2024-02-15T09:03:22;100588.19;;;11.45;96.54
19114;BME280;9689;51.052;13.772;2024-02-15T09:08:23;100591.47;;;11.54;95.17
19114;BME280;9689;51.052;13.772;2024-02-15T09:13:24;100582.59;;;11.65;94.53
19114;BME280;9689;51.052;13.772;2024-02-15T09:18:26;100599.03;;;11.70;93.96
19114;BME280;9689;51.052;13.772;2024-02-15T09:23:27;100591.00;;;11.79;93.60
19114;BME280;9689;51.052;13.772;2024-02-15T09:28:27;100591.91;;;11.78;92.92
19114;BME280;9689;51.052;13.772;2024-02-15T09:33:29;100589.25;;;11.82;93.16
19114;BME280;9689;51.052;13.772;2024-02-15T09:38:30;100589.81;;;11.95;92.68
19114;BME280;9689;51.052;13.772;2024-02-15T09:43:31;100592.38;;;11.98;92.20
19114;BME280;9689;51.052;13.772;2024-02-15T09:48:34;100594.78;;;12.07;91.91
19114;BME280;9689;51.052;13.772;2024-02-15T09:53:35;100594.97;;;11.98;91.49
19114;BME280;9689;51.052;13.772;2024-02-15T09:58:36;100604.00;;;11.83;91.16
19114;BME280;9689;51.052;13.772;2024-02-15T10:03:38;100605.91;;;11.72;91.47
19114;BME280;9689;51.052;13.772;2024-02-15T10:08:40;100605.25;;;11.64;91.53
19114;BME280;9689;51.052;13.772;2024-02-15T10:13:41;100593.66;;;11.77;91.91
19114;BME280;9689;51.052;13.772;2024-02-15T10:18:45;100589.03;;;11.90;91.06
19114;BME280;9689;51.052;13.772;2024-02-15T10:24:04;100591.31;;;12.07;90.69
19114;BME280;9689;51.052;13.772;2024-02-15T10:29:08;100583.00;;;12.28;89.96
19114;BME280;9689;51.052;13.772;2024-02-15T10:34:13;100584.16;;;12.15;89.55
19114;BME280;9689;51.052;13.772;2024-02-15T10:39:16;100584.75;;;11.87;89.18
19114;BME280;9689;51.052;13.772;2024-02-15T10:44:20;100579.81;;;11.74;90.34
19114;BME280;9689;51.052;13.772;2024-02-15T10:49:23;100577.09;;;11.78;90.40
19114;BME280;9689;51.052;13.772;2024-02-15T10:54:40;100566.63;;;11.78;90.99
19114;BME280;9689;51.052;13.772;2024-02-15T10:59:48;100575.09;;;11.93;90.43
19114;BME280;9689;51.052;13.772;2024-02-15T11:05:00;100557.25;;;12.11;89.60
19114;BME280;9689;51.052;13.772;2024-02-15T11:10:05;100556.16;;;12.22;89.48
19114;BME280;9689;51.052;13.772;2024-02-15T11:15:09;100549.97;;;12.26;88.99
19114;BME280;9689;51.052;13.772;2024-02-15T11:20:50;100557.81;;;12.26;89.50
19114;BME280;9689;51.052;13.772;2024-02-15T11:25:53;100554.22;;;12.30;88.97
19114;BME280;9689;51.052;13.772;2024-02-15T11:30:55;100555.47;;;12.51;88.40
19114;BME280;9689;51.052;13.772;2024-02-15T11:36:08;100545.56;;;12.99;87.69
19114;BME280;9689;51.052;13.772;2024-02-15T11:41:10;100537.88;;;13.58;84.86
19114;BME280;9689;51.052;13.772;2024-02-15T11:46:12;100529.84;;;13.64;83.18
19114;BME280;9689;51.052;13.772;2024-02-15T11:51:26;100526.28;;;13.67;83.00
19114;BME280;9689;51.052;13.772;2024-02-15T11:56:27;100527.28;;;13.61;82.40
19114;BME280;9689;51.052;13.772;2024-02-15T12:01:36;100518.59;;;13.90;81.55
19114;BME280;9689;51.052;13.772;2024-02-15T12:06:58;100522.09;;;13.89;81.86
19114;BME280;9689;51.052;13.772;2024-02-15T12:12:18;100515.25;;;13.85;80.89
19114;BME280;9689;51.052;13.772;2024-02-15T12:17:36;100511.00;;;13.81;81.96
19114;BME280;9689;51.052;13.772;2024-02-15T12:22:56;100511.19;;;13.75;82.23
19114;BME280;9689;51.052;13.772;2024-02-15T12:27:59;100503.63;;;13.66;83.33
19114;BME280;9689;51.052;13.772;2024-02-15T12:33:09;100502.53;;;13.73;82.82
19114;BME280;9689;51.052;13.772;2024-02-15T12:38:12;100493.84;;;13.71;82.60
19114;BME280;9689;51.052;13.772;2024-02-15T12:43:17;100483.47;;;14.24;81.25
19114;BME280;9689;51.052;13.772;2024-02-15T12:48:18;100486.59;;;14.63;79.29
19114;BME280;9689;51.052;13.772;2024-02-15T12:53:23;100486.06;;;14.25;79.41
19114;BME280;9689;51.052;13.772;2024-02-15T12:58:24;100489.41;;;14.29;79.48
19114;BME280;9689;51.052;13.772;2024-02-15T13:03:26;100486.81;;;14.29;77.71
19114;BME280;9689;51.052;13.772;2024-02-15T13:08:28;100485.25;;;14.51;76.13
19114;BME280;9689;51.052;13.772;2024-02-15T13:13:29;100483.34;;;14.55;75.79
19114;BME280;9689;51.052;13.772;2024-02-15T13:18:29;100476.75;;;14.69;75.11
19114;BME280;9689;51.052;13.772;2024-02-15T13:23:32;100482.63;;;14.50;73.83
19114;BME280;9689;51.052;13.772;2024-02-15T13:28:35;100480.06;;;14.48;73.95
19114;BME280;9689;51.052;13.772;2024-02-15T13:33:35;100476.00;;;14.91;73.07
19114;BME280;9689;51.052;13.772;2024-02-15T13:38:38;100470.38;;;15.25;70.73
19114;BME280;9689;51.052;13.772;2024-02-15T13:43:39;100460.94;;;15.68;69.82
19114;BME280;9689;51.052;13.772;2024-02-15T13:48:40;100455.84;;;16.08;67.54
19114;BME280;9689;51.052;13.772;2024-02-15T13:53:44;100456.59;;;16.32;66.58
19114;BME280;9689;51.052;13.772;2024-02-15T13:58:47;100451.31;;;16.54;65.45
19114;BME280;9689;51.052;13.772;2024-02-15T14:03:47;100460.78;;;16.16;65.68
19114;BME280;9689;51.052;13.772;2024-02-15T14:08:49;100449.34;;;15.95;66.13
19114;BME280;9689;51.052;13.772;2024-02-15T14:13:51;100440.34;;;15.79;66.42
19114;BME280;9689;51.052;13.772;2024-02-15T14:18:57;100445.88;;;15.73;66.09
19114;BME280;9689;51.052;13.772;2024-02-15T14:24:00;100443.97;;;15.30;66.87
19114;BME280;9689;51.052;13.772;2024-02-15T14:29:02;100439.25;;;15.39;67.26
19114;BME280;9689;51.052;13.772;2024-02-15T14:34:05;100444.00;;;15.28;67.51
19114;BME280;9689;51.052;13.772;2024-02-15T14:39:07;100452.13;;;15.22;67.71
19114;BME280;9689;51.052;13.772;2024-02-15T14:44:10;100449.59;;;14.95;68.74
19114;BME280;9689;51.052;13.772;2024-02-15T14:49:12;100441.53;;;15.00;68.35
19114;BME280;9689;51.052;13.772;2024-02-15T14:54:14;100447.25;;;15.11;68.25
19114;BME280;9689;51.052;13.772;2024-02-15T14:59:22;100444.47;;;15.16;70.17
19114;BME280;9689;51.052;13.772;2024-02-15T15:04:23;100438.72;;;14.81;73.23
19114;BME280;9689;51.052;13.772;2024-02-15T15:09:27;100440.34;;;14.60;74.82
19114;BME280;9689;51.052;13.772;2024-02-15T15:14:45;100434.25;;;14.32;76.04
19114;BME280;9689;51.052;13.772;2024-02-15T15:19:47;100430.09;;;14.26;76.31
19114;BME280;9689;51.052;13.772;2024-02-15T15:24:49;100435.53;;;14.20;77.05
19114;BME280;9689;51.052;13.772;2024-02-15T15:29:50;100430.66;;;14.09;77.45
19114;BME280;9689;51.052;13.772;2024-02-15T15:34:51;100436.25;;;13.97;78.14
19114;BME280;9689;51.052;13.772;2024-02-15T15:39:53;100440.00;;;13.90;78.39
19114;BME280;9689;51.052;13.772;2024-02-15T15:44:55;100423.75;;;13.79;78.62
19114;BME280;9689;51.052;13.772;2024-02-15T15:49:56;100427.66;;;13.66;78.78
19114;BME280;9689;51.052;13.772;2024-02-15T15:55:00;100427.25;;;13.50;79.79
19114;BME280;9689;51.052;13.772;2024-02-15T16:00:00;100419.16;;;13.29;80.58
19114;BME280;9689;51.052;13.772;2024-02-15T16:05:03;100416.03;;;13.15;81.33
19114;BME280;9689;51.052;13.772;2024-02-15T16:10:06;100415.63;;;12.99;81.97
19114;BME280;9689;51.052;13.772;2024-02-15T16:15:08;100412.50;;;12.87;82.74
19114;BME280;9689;51.052;13.772;2024-02-15T16:20:12;100412.84;;;12.73;83.33
19114;BME280;9689;51.052;13.772;2024-02-15T16:25:15;100423.84;;;12.53;84.17
19114;BME280;9689;51.052;13.772;2024-02-15T16:30:17;100434.13;;;12.59;84.46
19114;BME280;9689;51.052;13.772;2024-02-15T16:35:18;100440.09;;;12.64;84.39
19114;BME280;9689;51.052;13.772;2024-02-15T16:40:20;100447.09;;;12.64;84.21
19114;BME280;9689;51.052;13.772;2024-02-15T16:45:22;100450.72;;;12.58;84.55
19114;BME280;9689;51.052;13.772;2024-02-15T16:50:23;100436.13;;;12.51;84.20
19114;BME280;9689;51.052;13.772;2024-02-15T16:55:26;100438.31;;;12.32;85.13
19114;BME280;9689;51.052;13.772;2024-02-15T17:00:31;100443.75;;;12.23;84.87
19114;BME280;9689;51.052;13.772;2024-02-15T17:05:32;100439.72;;;12.11;85.58
19114;BME280;9689;51.052;13.772;2024-02-15T17:10:36;100441.72;;;11.99;85.75
19114;BME280;9689;51.052;13.772;2024-02-15T17:15:39;100435.81;;;11.92;86.39
19114;BME280;9689;51.052;13.772;2024-02-15T17:20:39;100446.25;;;11.92;85.82
19114;BME280;9689;51.052;13.772;2024-02-15T17:25:42;100444.09;;;11.71;86.44
19114;BME280;9689;51.052;13.772;2024-02-15T17:30:43;100449.69;;;11.55;87.02
19114;BME280;9689;51.052;13.772;2024-02-15T17:35:45;100456.66;;;11.53;87.73
19114;BME280;9689;51.052;13.772;2024-02-15T17:40:47;100459.72;;;11.72;87.38
19114;BME280;9689;51.052;13.772;2024-02-15T17:45:49;100452.69;;;11.76;87.17
19114;BME280;9689;51.052;13.772;2024-02-15T17:50:50;100445.81;;;11.72;86.76
19114;BME280;9689;51.052;13.772;2024-02-15T17:55:52;100448.53;;;11.67;85.67
19114;BME280;9689;51.052;13.772;2024-02-15T18:00:55;100461.13;;;11.48;86.82
19114;BME280;9689;51.052;13.772;2024-02-15T18:05:56;100449.84;;;11.46;87.71
19114;BME280;9689;51.052;13.772;2024-02-15T18:10:58;100448.28;;;11.38;87.87
19114;BME280;9689;51.052;13.772;2024-02-15T18:16:00;100447.59;;;11.31;87.63
19114;BME280;9689;51.052;13.772;2024-02-15T18:21:00;100439.59;;;11.37;88.28
19114;BME280;9689;51.052;13.772;2024-02-15T18:26:03;100433.94;;;11.17;88.62
19114;BME280;9689;51.052;13.772;2024-02-15T18:31:04;100448.06;;;11.07;89.47
19114;BME280;9689;51.052;13.772;2024-02-15T18:36:09;100448.13;;;11.03;89.79
19114;BME280;9689;51.052;13.772;2024-02-15T18:41:11;100440.31;;;11.02;89.25
19114;BME280;9689;51.052;13.772;2024-02-15T18:46:13;100456.06;;;10.97;89.28
19114;BME280;9689;51.052;13.772;2024-02-15T18:51:15;100460.41;;;10.98;89.77
19114;BME280;9689;51.052;13.772;2024-02-15T18:56:18;100448.34;;;10.91;89.90
19114;BME280;9689;51.052;13.772;2024-02-15T19:01:19;100442.44;;;10.83;89.53
19114;BME280;9689;51.052;13.772;2024-02-15T19:06:22;100432.13;;;10.75;90.61
19114;BME280;9689;51.052;13.772;2024-02-15T19:11:26;100429.00;;;10.57;91.58
19114;BME280;9689;51.052;13.772;2024-02-15T19:16:27;100429.00;;;10.57;91.38
19114;BME280;9689;51.052;13.772;2024-02-15T19:21:29;100426.47;;;10.54;92.53
19114;BME280;9689;51.052;13.772;2024-02-15T19:26:31;100430.97;;;10.45;91.62
19114;BME280;9689;51.052;13.772;2024-02-15T19:31:32;100420.59;;;10.42;92.48
19114;BME280;9689;51.052;13.772;2024-02-15T19:36:36;100424.19;;;10.35;93.43
19114;BME280;9689;51.052;13.772;2024-02-15T19:41:39;100431.97;;;10.37;93.40
19114;BME280;9689;51.052;13.772;2024-02-15T19:46:41;100417.25;;;10.36;93.22
19114;BME280;9689;51.052;13.772;2024-02-15T19:51:42;100418.22;;;10.29;93.01
19114;BME280;9689;51.052;13.772;2024-02-15T19:56:45;100424.28;;;10.29;94.15
19114;BME280;9689;51.052;13.772;2024-02-15T20:01:46;100419.19;;;10.20;94.50
19114;BME280;9689;51.052;13.772;2024-02-15T20:06:46;100434.88;;;10.17;95.39
19114;BME280;9689;51.052;13.772;2024-02-15T20:11:49;100438.50;;;10.07;95.80
19114;BME280;9689;51.052;13.772;2024-02-15T20:16:50;100430.75;;;10.04;95.92
19114;BME280;9689;51.052;13.772;2024-02-15T20:21:54;100440.34;;;10.02;95.51
19114;BME280;9689;51.052;13.772;2024-02-15T20:26:56;100445.75;;;9.86;96.09
19114;BME280;9689;51.052;13.772;2024-02-15T20:31:57;100441.38;;;9.88;95.86
19114;BME280;9689;51.052;13.772;2024-02-15T20:36:58;100445.78;;;9.85;96.86
19114;BME280;9689;51.052;13.772;2024-02-15T20:42:02;100442.44;;;9.77;97.54
19114;BME280;9689;51.052;13.772;2024-02-15T20:47:03;100427.75;;;9.71;97.43
19114;BME280;9689;51.052;13.772;2024-02-15T20:52:09;100424.34;;;9.69;97.38
19114;BME280;9689;51.052;13.772;2024-02-15T20:57:12;100428.78;;;9.61;97.73
19114;BME280;9689;51.052;13.772;2024-02-15T21:02:16;100430.47;;;9.63;97.82
19114;BME280;9689;51.052;13.772;2024-02-15T21:07:19;100416.66;;;9.60;97.96
19114;BME280;9689;51.052;13.772;2024-02-15T21:12:22;100408.13;;;9.50;97.76
19114;BME280;9689;51.052;13.772;2024-02-15T21:17:24;100410.66;;;9.55;97.23
19114;BME280;9689;51.052;13.772;2024-02-15T21:22:24;100403.84;;;9.48;98.31
19114;BME280;9689;51.052;13.772;2024-02-15T21:27:30;100385.75;;;9.37;98.53
19114;BME280;9689;51.052;13.772;2024-02-15T21:32:31;100384.06;;;9.34;98.90
19114;BME280;9689;51.052;13.772;2024-02-15T21:37:32;100385.03;;;9.26;98.59
19114;BME280;9689;51.052;13.772;2024-02-15T21:42:34;100381.53;;;9.28;98.67
19114;BME280;9689;51.052;13.772;2024-02-15T21:47:35;100378.06;;;9.29;98.54
19114;BME280;9689;51.052;13.772;2024-02-15T21:52:36;100372.00;;;9.30;98.00
19114;BME280;9689;51.052;13.772;2024-02-15T21:57:39;100364.94;;;9.37;98.06
19114;BME280;9689;51.052;13.772;2024-02-15T22:02:39;100352.81;;;9.39;98.58
19114;BME280;9689;51.052;13.772;2024-02-15T22:07:40;100341.53;;;9.37;98.32
19114;BME280;9689;51.052;13.772;2024-02-15T22:12:42;100327.66;;;9.38;97.38
19114;BME280;9689;51.052;13.772;2024-02-15T22:17:43;100324.19;;;9.39;97.79
19114;BME280;9689;51.052;13.772;2024-02-15T22:22:44;100324.06;;;9.48;97.58
19114;BME280;9689;51.052;13.772;2024-02-15T22:27:46;100332.81;;;9.43;97.26
19114;BME280;9689;51.052;13.772;2024-02-15T22:32:47;100326.63;;;9.50;95.79
19114;BME280;9689;51.052;13.772;2024-02-15T22:37:48;100344.94;;;9.42;97.34
19114;BME280;9689;51.052;13.772;2024-02-15T22:42:50;100346.69;;;9.42;96.24
19114;BME280;9689;51.052;13.772;2024-02-15T22:47:51;100348.47;;;9.38;96.40
19114;BME280;9689;51.052;13.772;2024-02-15T22:52:53;100339.81;;;9.39;96.24
19114;BME280;9689;51.052;13.772;2024-02-15T22:57:55;100328.44;;;9.45;96.44
19114;BME280;9689;51.052;13.772;2024-02-15T23:02:56;100337.00;;;9.51;95.81
19114;BME280;9689;51.052;13.772;2024-02-15T23:07:57;100331.00;;;9.48;95.33
19114;BME280;9689;51.052;13.772;2024-02-15T23:12:59;100331.75;;;9.54;95.44
19114;BME280;9689;51.052;13.772;2024-02-15T23:18:00;100329.25;;;9.48;95.72
19114;BME280;9689;51.052;13.772;2024-02-15T23:23:01;100325.84;;;9.43;96.62
19114;BME280;9689;51.052;13.772;2024-02-15T23:28:03;100325.84;;;9.43;96.39
19114;BME280;9689;51.052;13.772;2024-02-15T23:33:04;100331.13;;;9.37;95.76
19114;BME280;9689;51.052;13.772;2024-02-15T23:38:07;100324.25;;;9.34;95.95
19114;BME280;9689;51.052;13.772;2024-02-15T23:43:26;100329.47;;;9.33;95.83
19114;BME280;9689;51.052;13.772;2024-02-15T23:48:27;100318.31;;;9.25;96.38
19114;BME280;9689;51.052;13.772;2024-02-15T23:53:28;100317.38;;;9.29;96.56
19114;BME280;9689;51.052;13.772;2024-02-15T23:58:30;100322.66;;;9.24;96.68
